createdAt,value
2023-01-04T00:03:16.149Z,3.52
2023-01-04T00:08:17.489Z,3.48
2023-01-04T00:13:19.214Z,3.47
2023-01-04T00:18:20.468Z,3.48
2023-01-04T00:23:21.745Z,3.49
2023-01-04T00:28:23.094Z,3.53
2023-01-04T00:33:24.347Z,3.53
2023-01-04T00:38:25.650Z,3.48
2023-01-04T00:43:27.483Z,3.40
2023-01-04T00:48:29.895Z,3.26
2023-01-04T00:53:31.163Z,3.11
2023-01-04T00:58:32.413Z,2.96
2023-01-04T01:03:38.522Z,2.83
2023-01-04T01:08:40.304Z,2.76
2023-01-04T01:13:41.911Z,2.65
2023-01-04T01:18:44.792Z,2.59
2023-01-04T01:23:47.097Z,2.57
2023-01-04T01:28:49.012Z,2.58
2023-01-04T01:33:52.113Z,2.58
2023-01-04T01:38:54.403Z,2.60
2023-01-04T01:44:01.704Z,2.65
2023-01-04T01:49:42.319Z,2.68
2023-01-04T01:54:59.157Z,2.75
2023-01-04T02:00:08.331Z,2.77
2023-01-04T02:05:10.437Z,2.66
2023-01-04T02:10:12.235Z,2.50
2023-01-04T02:15:13.923Z,2.32
2023-01-04T02:20:20.895Z,2.16
2023-01-04T02:25:43.692Z,2.02
2023-01-04T02:30:48.290Z,1.92
2023-01-04T02:35:58.711Z,1.85
2023-01-04T02:41:29.081Z,1.77
2023-01-04T02:46:35.798Z,1.69
2023-01-04T02:51:37.870Z,1.60
2023-01-04T02:57:04.561Z,1.51
2023-01-04T03:02:31.384Z,1.38
2023-01-04T03:07:54.585Z,1.26
2023-01-04T03:13:21.147Z,1.17
2023-01-04T03:18:27.118Z,1.08
2023-01-04T03:23:52.915Z,1.03
2023-01-04T03:29:18.091Z,1.02
2023-01-04T03:34:38.277Z,1.01
2023-01-04T03:40:19.994Z,0.95
2023-01-04T03:45:48.528Z,0.89
2023-01-04T03:51:03.622Z,0.82
2023-01-04T03:56:07.740Z,0.75
2023-01-04T04:01:09.834Z,0.68
2023-01-04T04:06:30.399Z,0.63
2023-01-04T04:11:32.103Z,0.61
2023-01-04T04:16:33.579Z,0.58
2023-01-04T04:21:36.289Z,0.55
2023-01-04T04:26:37.754Z,0.49
2023-01-04T04:31:39.132Z,0.48
2023-01-04T04:36:40.438Z,0.51
2023-01-04T04:41:42.042Z,0.51
2023-01-04T04:46:44.690Z,0.48
2023-01-04T04:51:46.614Z,0.42
2023-01-04T04:56:49.033Z,0.36
2023-01-04T05:01:50.541Z,0.34
2023-01-04T05:06:52.259Z,0.35
2023-01-04T05:12:11.777Z,0.37
2023-01-04T05:17:13.014Z,0.37
2023-01-04T05:22:14.324Z,0.35
2023-01-04T05:27:15.906Z,0.33
2023-01-04T05:32:17.182Z,0.27
2023-01-04T05:37:18.809Z,0.20
2023-01-04T05:42:27.224Z,0.14
2023-01-04T05:47:29.106Z,0.09
2023-01-04T05:52:30.818Z,0.05
2023-01-04T05:57:32.074Z,0.02
2023-01-04T06:02:33.988Z,0.05
2023-01-04T06:07:35.611Z,0.08
2023-01-04T06:12:37.619Z,0.10
2023-01-04T06:17:39.370Z,0.09
2023-01-04T06:22:40.967Z,0.04
2023-01-04T06:27:42.265Z,0.02
2023-01-04T06:32:43.544Z,-0.00
2023-01-04T06:37:44.861Z,-0.04
2023-01-04T06:42:46.342Z,-0.06
2023-01-04T06:47:47.692Z,-0.03
2023-01-04T06:52:49.006Z,0.02
2023-01-04T06:57:53.931Z,0.09
2023-01-04T07:03:12.781Z,0.19
2023-01-04T07:08:16.550Z,0.33
2023-01-04T07:13:17.957Z,0.43
2023-01-04T07:18:19.252Z,0.49
2023-01-04T07:23:20.733Z,0.53
2023-01-04T07:28:40.693Z,0.54
2023-01-04T07:33:42.079Z,0.60
2023-01-04T07:38:43.642Z,0.72
2023-01-04T07:43:45.319Z,0.84
2023-01-04T07:48:46.798Z,0.95
2023-01-04T07:53:48.385Z,1.04
2023-01-04T07:58:49.800Z,1.09
2023-01-04T08:03:52.693Z,1.15
2023-01-04T08:08:54.018Z,1.21
2023-01-04T08:13:55.347Z,1.30
2023-01-04T08:19:11.329Z,1.44
2023-01-04T08:24:17.896Z,1.62
2023-01-04T08:29:19.555Z,1.80
2023-01-04T08:34:20.877Z,1.98
2023-01-04T08:39:22.267Z,2.14
2023-01-04T08:44:24.839Z,2.26
2023-01-04T08:49:26.270Z,2.38
2023-01-04T08:54:27.643Z,2.45
2023-01-04T08:59:29.065Z,2.50
2023-01-04T09:04:30.664Z,2.59
2023-01-04T09:09:32.080Z,2.73
2023-01-04T09:14:34.815Z,2.90
2023-01-04T09:19:36.261Z,3.08
2023-01-04T09:24:37.697Z,3.23
2023-01-04T09:29:38.951Z,3.36
2023-01-04T09:34:40.226Z,3.55
2023-01-04T09:39:41.852Z,3.70
2023-01-04T09:45:22.726Z,3.84
2023-01-04T09:50:23.384Z,3.98
2023-01-04T09:55:37.316Z,4.16
2023-01-04T10:00:46.361Z,4.29
2023-01-04T10:05:48.127Z,4.42
2023-01-04T10:11:11.083Z,4.55
2023-01-04T10:17:01.238Z,4.65
2023-01-04T10:22:00.665Z,4.76
2023-01-04T10:27:11.157Z,4.85
2023-01-04T10:32:21.870Z,4.95
2023-01-04T10:37:29.830Z,4.98
2023-01-04T10:42:38.834Z,4.99
2023-01-04T10:48:07.077Z,5.03
2023-01-04T10:53:35.301Z,5.07
2023-01-04T10:58:47.150Z,5.08
2023-01-04T11:03:51.611Z,5.13
2023-01-04T11:08:58.865Z,5.17
2023-01-04T11:14:00.890Z,5.23
2023-01-04T11:19:06.681Z,5.25
2023-01-04T11:29:44.591Z,5.15
2023-01-04T11:34:47.678Z,5.07
2023-01-04T11:39:49.015Z,5.03
2023-01-04T11:45:35.225Z,5.02
2023-01-04T11:50:45.157Z,4.95
2023-01-04T11:55:46.418Z,4.95
2023-01-04T12:00:53.407Z,4.94
2023-01-04T12:05:55.262Z,4.96
2023-01-04T12:10:59.486Z,5.03
2023-01-04T12:16:13.499Z,5.07
2023-01-04T12:21:21.441Z,5.06
2023-01-04T12:26:23.026Z,5.07
2023-01-04T12:31:27.469Z,5.09
2023-01-04T12:36:47.700Z,5.11
2023-01-04T12:42:06.868Z,5.15
2023-01-04T12:47:48.663Z,5.15
2023-01-04T12:53:11.247Z,5.12
2023-01-04T12:58:58.571Z,5.12
2023-01-04T13:04:02.542Z,5.13
2023-01-04T13:09:23.650Z,5.14
2023-01-04T13:14:48.466Z,5.16
2023-01-04T13:19:50.196Z,5.15
2023-01-04T13:24:52.389Z,5.15
2023-01-04T13:29:54.397Z,5.13
2023-01-04T13:35:00.889Z,5.06
2023-01-04T13:40:12.485Z,4.95
2023-01-04T13:45:45.591Z,4.82
2023-01-04T13:51:05.844Z,4.69
2023-01-04T13:56:29.174Z,4.63
2023-01-04T14:01:36.548Z,4.63
2023-01-04T14:06:46.479Z,4.64
2023-01-04T14:12:04.074Z,4.64
2023-01-04T14:17:08.278Z,4.63
2023-01-04T14:22:36.268Z,4.63
2023-01-04T14:27:44.642Z,4.63
2023-01-04T14:33:11.264Z,4.61
2023-01-04T14:38:18.268Z,4.59
2023-01-04T14:43:45.976Z,4.57
2023-01-04T14:48:47.221Z,4.55
2023-01-04T14:53:50.302Z,4.52
2023-01-04T14:58:51.539Z,4.48
2023-01-04T15:03:52.817Z,4.48
2023-01-04T15:08:54.291Z,4.48
2023-01-04T15:13:55.600Z,4.47
2023-01-04T15:18:56.931Z,4.45
2023-01-04T15:23:58.697Z,4.43
2023-01-04T15:29:00.007Z,4.40
2023-01-04T15:34:01.921Z,4.36
2023-01-04T15:39:04.815Z,4.34
2023-01-04T15:44:09.795Z,4.31
2023-01-04T15:49:16.890Z,4.29
2023-01-04T15:54:20.925Z,4.29
2023-01-04T15:59:22.711Z,4.31
2023-01-04T16:04:24.080Z,4.32
2023-01-04T16:09:25.440Z,4.32
2023-01-04T16:14:27.036Z,4.33
2023-01-04T16:19:31.419Z,4.34
2023-01-04T16:29:54.085Z,4.37
2023-01-04T16:34:55.435Z,4.42
2023-01-04T16:40:12.297Z,4.46
2023-01-04T16:45:14.619Z,4.50
2023-01-04T16:50:16.267Z,4.53
2023-01-04T16:55:23.626Z,4.54
2023-01-04T17:00:25.513Z,4.54
2023-01-04T17:05:26.747Z,4.56
2023-01-04T17:10:29.855Z,4.57
2023-01-04T17:15:42.811Z,4.61
2023-01-04T17:20:52.766Z,4.65
2023-01-04T17:26:00.618Z,4.68
2023-01-04T17:31:13.785Z,4.74
2023-01-04T17:36:17.406Z,4.79
2023-01-04T17:41:22.492Z,4.83
2023-01-04T17:46:24.212Z,4.85
2023-01-04T17:51:27.101Z,4.88
2023-01-04T17:56:32.208Z,4.92
2023-01-04T18:01:34.958Z,4.97
2023-01-04T18:06:36.886Z,5.03
2023-01-04T18:11:38.438Z,5.06
2023-01-04T18:16:55.087Z,5.09
2023-01-04T18:21:57.589Z,5.13
2023-01-04T18:27:21.000Z,5.15
2023-01-04T18:32:22.632Z,5.21
2023-01-04T18:37:23.905Z,5.28
2023-01-04T18:42:25.091Z,5.32
2023-01-04T18:47:27.292Z,5.35
2023-01-04T18:52:28.533Z,5.37
2023-01-04T18:57:29.907Z,5.41
2023-01-04T19:02:31.356Z,5.44
2023-01-04T19:07:40.115Z,5.48
2023-01-04T19:12:43.454Z,5.53
2023-01-04T19:17:44.974Z,5.60
2023-01-04T19:22:46.323Z,5.66
2023-01-04T19:27:47.682Z,5.72
2023-01-04T19:32:49.006Z,5.80
2023-01-04T19:37:50.549Z,5.86
2023-01-04T19:42:51.789Z,5.93
2023-01-04T19:47:53.427Z,5.98
2023-01-04T19:52:54.720Z,6.04
2023-01-04T19:57:56.375Z,6.10
2023-01-04T20:02:57.869Z,6.16
2023-01-04T20:07:59.437Z,6.22
2023-01-04T20:13:01.092Z,6.29
2023-01-04T20:18:02.592Z,6.36
2023-01-04T20:23:05.145Z,6.44
2023-01-04T20:28:06.436Z,6.51
2023-01-04T20:33:08.924Z,6.58
2023-01-04T20:38:11.476Z,6.63
2023-01-04T20:43:30.824Z,6.68
2023-01-04T20:48:32.183Z,6.73
2023-01-04T20:53:35.640Z,6.76
2023-01-04T20:58:38.110Z,6.80
2023-01-04T21:03:40.992Z,6.83
2023-01-04T21:08:45.071Z,6.86
2023-01-04T21:13:46.906Z,6.88
2023-01-04T21:18:48.307Z,6.90
2023-01-04T21:23:56.173Z,6.93
2023-01-04T21:28:59.109Z,6.94
2023-01-04T21:34:01.329Z,6.96
2023-01-04T21:39:03.005Z,7.00
2023-01-04T21:44:04.494Z,7.02
2023-01-04T21:49:06.021Z,7.04
2023-01-04T21:54:07.644Z,7.05
2023-01-04T21:59:09.063Z,7.07
2023-01-04T22:04:10.398Z,7.08
2023-01-04T22:09:12.060Z,7.11
2023-01-04T22:14:14.516Z,7.14
2023-01-04T22:19:15.817Z,7.17
2023-01-04T22:24:17.456Z,7.20
2023-01-04T22:29:20.501Z,7.23
2023-01-04T22:34:24.136Z,7.26
2023-01-04T22:39:25.440Z,7.29
2023-01-04T22:44:26.827Z,7.31
2023-01-04T22:49:28.191Z,7.33
2023-01-04T22:54:32.391Z,7.36
2023-01-04T22:59:33.689Z,7.39
2023-01-04T23:04:34.987Z,7.41
2023-01-04T23:09:36.284Z,7.43
2023-01-04T23:14:37.858Z,7.46
2023-01-04T23:19:39.171Z,7.47
2023-01-04T23:24:41.577Z,7.48
2023-01-04T23:29:43.443Z,7.50
2023-01-04T23:34:44.731Z,7.51
2023-01-04T23:39:48.131Z,7.54
2023-01-04T23:44:49.388Z,7.57
2023-01-04T23:49:50.626Z,7.59
2023-01-04T23:54:51.809Z,7.61
2023-01-04T23:59:53.674Z,7.64
